Wetterdaten: Woche 09.04.18 - 15.04.18 (KW15)
Datum Zeit Temp. Aussen Temp. o. S. +5cm Feuchte Auss BlattFeu 1 Luftdruck Regen Sonnenschein Regendauer Solar Windben Empfang
09.04.2018 00:00 13,1 C 11,5 C 8,1 C 73 % 0 lf 1004,7 hPa 0,0 l/m 0,00 h 0,00 h 0 W/m 1,4 km/h (1 Bft) 96,84 %
09.04.2018 01:00 12,2 C 10,5 C 7,4 C 75 % 0 lf 1004,7 hPa 0,0 l/m 0,00 h 0,00 h 0 W/m 0,0 km/h (0 Bft) 98,17 %
09.04.2018 02:00 11,2 C 9,7 C 6,9 C 78 % 0 lf 1004,5 hPa 0,0 l/m 0,00 h 0,00 h 0 W/m 0,0 km/h (0 Bft) 94,27 %
09.04.2018 03:00 10,4 C 9,1 C 6,6 C 80 % 0 lf 1004,4 hPa 0,0 l/m 0,00 h 0,00 h 0 W/m 1,0 km/h (0 Bft) 96,70 %
09.04.2018 04:00 9,7 C 8,6 C 6,5 C 83 % 0 lf 1004,4 hPa 0,0 l/m 0,00 h 0,00 h 0 W/m 0,0 km/h (0 Bft) 93,48 %
09.04.2018 05:00 9,6 C 9,1 C 7,2 C 85 % 0 lf 1004,3 hPa 0,0 l/m 0,00 h 0,00 h 0 W/m 0,0 km/h (0 Bft) 94,18 %
09.04.2018 06:00 9,8 C 9,0 C 7,0 C 86 % 0 lf 1004,3 hPa 0,0 l/m 0,00 h 0,00 h 5 W/m 0,6 km/h (0 Bft) 97,77 %
09.04.2018 07:00 9,8 C 10,0 C 8,0 C 87 % 0 lf 1004,5 hPa 0,0 l/m 0,13 h 0,00 h 44 W/m 3,6 km/h (1 Bft) 96,18 %
09.04.2018 08:00 10,7 C 12,2 C 10,5 C 91 % 0 lf 1004,8 hPa 0,0 l/m 0,27 h 0,00 h 111 W/m 9,4 km/h (2 Bft) 96,89 %
09.04.2018 09:00 11,6 C 13,0 C 11,8 C 90 % 0 lf 1004,9 hPa 0,0 l/m 0,07 h 0,00 h 145 W/m 12,5 km/h (3 Bft) 95,01 %
09.04.2018 10:00 12,5 C 15,4 C 13,8 C 88 % 0 lf 1004,9 hPa 0,0 l/m 0,17 h 0,00 h 235 W/m 11,5 km/h (2 Bft) 97,36 %
09.04.2018 11:00 13,7 C 17,2 C 15,2 C 82 % 0 lf 1004,5 hPa 0,0 l/m 0,47 h 0,00 h 316 W/m 15,7 km/h (3 Bft) 96,85 %
09.04.2018 12:00 15,4 C 20,6 C 17,7 C 77 % 0 lf 1004,1 hPa 0,0 l/m 0,63 h 0,00 h 416 W/m 16,6 km/h (3 Bft) 94,46 %
09.04.2018 13:00 16,4 C 20,5 C 18,0 C 75 % 0 lf 1003,4 hPa 0,0 l/m 0,63 h 0,00 h 401 W/m 15,6 km/h (3 Bft) 97,67 %
09.04.2018 14:00 17,6 C 19,7 C 18,5 C 72 % 0 lf 1002,9 hPa 0,0 l/m 0,03 h 0,00 h 275 W/m 14,6 km/h (3 Bft) 97,71 %
09.04.2018 15:00 17,9 C 19,3 C 18,2 C 71 % 0 lf 1002,3 hPa 0,0 l/m 0,00 h 0,00 h 204 W/m 11,8 km/h (2 Bft) 93,75 %
09.04.2018 16:00 18,5 C 20,1 C 18,9 C 72 % 0 lf 1001,4 hPa 0,0 l/m 0,00 h 0,00 h 212 W/m 13,4 km/h (3 Bft) 97,94 %
09.04.2018 17:00 18,8 C 19,8 C 18,6 C 72 % 0 lf 1000,8 hPa 0,0 l/m 0,13 h 0,00 h 169 W/m 13,0 km/h (3 Bft) 98,10 %
09.04.2018 18:00 18,9 C 19,0 C 17,9 C 72 % 0 lf 1000,3 hPa 0,0 l/m 0,00 h 0,00 h 90 W/m 12,5 km/h (3 Bft) 93,39 %
09.04.2018 19:00 18,2 C 17,5 C 16,3 C 74 % 0 lf 1000,0 hPa 0,0 l/m 0,00 h 0,00 h 44 W/m 12,0 km/h (2 Bft) 98,22 %
09.04.2018 20:00 17,0 C 15,3 C 13,5 C 77 % 0 lf 999,8 hPa 0,0 l/m 0,00 h 0,00 h 8 W/m 6,5 km/h (2 Bft) 96,01 %
09.04.2018 21:00 15,5 C 13,4 C 10,9 C 80 % 0 lf 999,7 hPa 0,0 l/m 0,00 h 0,00 h 0 W/m 2,7 km/h (1 Bft) 94,88 %
09.04.2018 22:00 14,1 C 12,9 C 10,2 C 84 % 0 lf 999,7 hPa 0,0 l/m 0,00 h 0,00 h 0 W/m 3,9 km/h (1 Bft) 97,03 %
09.04.2018 23:00 14,0 C 13,9 C 11,7 C 87 % 0 lf 999,7 hPa 0,0 l/m 0,00 h 0,00 h 0 W/m 11,5 km/h (2 Bft) 97,23 %
10.04.2018 00:00 14,3 C 14,1 C 11,8 C 85 % 0 lf 999,9 hPa 0,0 l/m 0,00 h 0,00 h 0 W/m 14,9 km/h (3 Bft) 90,54 %
10.04.2018 01:00 14,6 C 13,7 C 11,5 C 81 % 0 lf 1000,1 hPa 0,0 l/m 0,00 h 0,00 h 0 W/m 14,1 km/h (3 Bft) 96,00 %
10.04.2018 02:00 13,5 C 12,3 C 10,2 C 84 % 0 lf 1000,3 hPa 0,0 l/m 0,00 h 0,00 h 0 W/m 10,9 km/h (2 Bft) 96,79 %
10.04.2018 03:00 12,6 C 11,7 C 9,0 C 87 % 0 lf 1000,5 hPa 0,0 l/m 0,00 h 0,00 h 0 W/m 8,6 km/h (2 Bft) 97,63 %
10.04.2018 04:00 11,9 C 10,9 C 7,8 C 88 % 1 lf 1000,5 hPa 0,0 l/m 0,00 h 0,00 h 0 W/m 6,3 km/h (2 Bft) 93,74 %
10.04.2018 05:00 11,2 C 10,4 C 7,5 C 89 % 1 lf 1000,6 hPa 0,0 l/m 0,00 h 0,00 h 0 W/m 5,1 km/h (1 Bft) 98,52 %
10.04.2018 06:00 10,8 C 10,4 C 7,3 C 90 % 1 lf 1000,8 hPa 0,0 l/m 0,00 h 0,00 h 4 W/m 5,8 km/h (2 Bft) 96,64 %
10.04.2018 07:00 10,8 C 11,2 C 8,4 C 92 % 1 lf 1001,1 hPa 0,0 l/m 0,00 h 0,00 h 27 W/m 6,6 km/h (2 Bft) 94,73 %
10.04.2018 08:00 11,6 C 13,1 C 11,0 C 93 % 0 lf 1001,6 hPa 0,0 l/m 0,00 h 0,00 h 21 W/m 10,4 km/h (2 Bft) 97,81 %
10.04.2018 09:00 13,8 C 17,2 C 14,2 C 86 % 0 lf 1002,3 hPa 0,0 l/m 0,00 h 0,00 h 62 W/m 15,6 km/h (3 Bft) 96,51 %
10.04.2018 10:00 15,5 C 18,2 C 17,4 C 79 % 0 lf 1002,7 hPa 0,0 l/m 0,00 h 0,00 h 61 W/m 15,9 km/h (3 Bft) 95,17 %
10.04.2018 11:00 16,8 C 18,4 C 18,0 C 70 % 0 lf 1003,0 hPa 0,0 l/m 0,00 h 0,00 h 47 W/m 12,3 km/h (3 Bft) 96,63 %
10.04.2018 12:00 17,6 C 20,4 C 20,6 C 66 % 0 lf 1003,0 hPa 0,0 l/m 0,00 h 0,00 h 71 W/m 11,0 km/h (2 Bft) 98,07 %
10.04.2018 13:00 18,5 C 20,6 C 20,8 C 64 % 0 lf 1002,9 hPa 0,0 l/m 0,00 h 0,00 h 69 W/m 12,2 km/h (2 Bft) 94,60 %
10.04.2018 14:00 18,7 C 20,4 C 20,2 C 62 % 0 lf 1002,7 hPa 0,0 l/m 0,00 h 0,00 h 52 W/m 10,2 km/h (2 Bft) 95,86 %
10.04.2018 15:00 19,0 C 21,3 C 19,9 C 61 % 0 lf 1002,3 hPa 0,0 l/m 0,00 h 0,07 h 50 W/m 9,8 km/h (2 Bft) 97,59 %
10.04.2018 16:00 19,9 C 23,6 C 21,2 C 58 % 0 lf 1001,8 hPa 0,0 l/m 0,00 h 0,13 h 61 W/m 10,3 km/h (2 Bft) 96,05 %
10.04.2018 17:00 20,3 C 21,8 C 20,2 C 58 % 0 lf 1001,6 hPa 0,0 l/m 0,00 h 0,00 h 33 W/m 9,4 km/h (2 Bft) 94,84 %
10.04.2018 18:00 19,6 C 19,7 C 18,3 C 60 % 0 lf 1001,4 hPa 0,0 l/m 0,00 h 0,00 h 18 W/m 10,3 km/h (2 Bft) 99,12 %
10.04.2018 19:00 18,8 C 17,7 C 15,6 C 65 % 2 lf 1001,4 hPa 0,0 l/m 0,00 h 0,23 h 7 W/m 8,6 km/h (2 Bft) 94,74 %
10.04.2018 20:00 17,5 C 13,8 C 12,6 C 75 % 15 lf 1002,1 hPa 1,8 l/m 0,00 h 1,00 h 0 W/m 6,0 km/h (2 Bft) 96,43 %
10.04.2018 21:00 14,6 C 12,2 C 11,5 C 87 % 15 lf 1002,9 hPa 8,8 l/m 0,00 h 1,00 h 0 W/m 21,4 km/h (4 Bft) 98,36 %
10.04.2018 22:00 12,9 C 11,7 C 11,1 C 93 % 15 lf 1003,6 hPa 8,6 l/m 0,00 h 1,00 h 0 W/m 19,7 km/h (3 Bft) 96,19 %
10.04.2018 23:00 12,2 C 11,3 C 10,6 C 96 % 15 lf 1003,3 hPa 1,2 l/m 0,00 h 1,00 h 0 W/m 21,0 km/h (4 Bft) 94,54 %
11.04.2018 00:00 11,5 C 10,4 C 9,8 C 96 % 15 lf 1003,4 hPa 0,6 l/m 0,00 h 0,97 h 0 W/m 20,8 km/h (4 Bft) 94,29 %
11.04.2018 01:00 10,8 C 9,9 C 9,4 C 96 % 15 lf 1003,9 hPa 0,2 l/m 0,00 h 0,20 h 0 W/m 7,7 km/h (2 Bft) 96,12 %
11.04.2018 02:00 10,6 C 9,8 C 9,4 C 95 % 15 lf 1004,0 hPa 0,0 l/m 0,00 h 0,00 h 0 W/m 5,2 km/h (1 Bft) 95,92 %
11.04.2018 03:00 10,7 C 10,0 C 9,4 C 96 % 15 lf 1004,7 hPa 0,0 l/m 0,00 h 0,17 h 0 W/m 8,6 km/h (2 Bft) 95,23 %
11.04.2018 04:00 10,6 C 10,0 C 9,3 C 96 % 15 lf 1004,8 hPa 0,0 l/m 0,00 h 0,03 h 0 W/m 7,5 km/h (2 Bft) 98,62 %
11.04.2018 05:00 10,5 C 9,8 C 9,1 C 96 % 15 lf 1004,8 hPa 0,0 l/m 0,00 h 0,07 h 0 W/m 8,3 km/h (2 Bft) 95,48 %
11.04.2018 06:00 10,1 C 9,4 C 8,3 C 96 % 10 lf 1004,6 hPa 0,0 l/m 0,00 h 0,00 h 0 W/m 8,5 km/h (2 Bft) 96,03 %
11.04.2018 07:00 10,0 C 9,4 C 8,7 C 95 % 9 lf 1004,9 hPa 0,4 l/m 0,00 h 0,50 h 10 W/m 5,6 km/h (1 Bft) 97,29 %
11.04.2018 08:00 10,2 C 9,8 C 9,1 C 96 % 15 lf 1005,4 hPa 0,0 l/m 0,00 h 0,00 h 16 W/m 1,9 km/h (1 Bft) 96,15 %
11.04.2018 09:00 10,4 C 10,2 C 9,6 C 96 % 12 lf 1005,7 hPa 0,0 l/m 0,00 h 0,00 h 33 W/m 3,4 km/h (1 Bft) 95,16 %
11.04.2018 10:00 10,9 C 10,9 C 10,3 C 96 % 0 lf 1005,8 hPa 0,0 l/m 0,00 h 0,00 h 49 W/m 6,0 km/h (2 Bft) 99,01 %
11.04.2018 11:00 11,2 C 11,1 C 10,5 C 96 % 0 lf 1005,9 hPa 0,0 l/m 0,00 h 0,00 h 44 W/m 5,0 km/h (1 Bft) 95,30 %
11.04.2018 12:00 11,3 C 10,7 C 10,0 C 95 % 0 lf 1006,0 hPa 0,0 l/m 0,00 h 0,00 h 37 W/m 9,2 km/h (2 Bft) 95,89 %
11.04.2018 13:00 10,5 C 10,1 C 9,5 C 95 % 0 lf 1006,0 hPa 0,0 l/m 0,00 h 0,00 h 48 W/m 13,6 km/h (3 Bft) 96,80 %
11.04.2018 14:00 10,5 C 11,5 C 10,3 C 96 % 1 lf 1005,8 hPa 0,0 l/m 0,00 h 0,03 h 77 W/m 9,7 km/h (2 Bft) 96,50 %
11.04.2018 15:00 11,1 C 11,9 C 10,5 C 96 % 2 lf 1005,5 hPa 0,0 l/m 0,00 h 0,13 h 62 W/m 5,3 km/h (1 Bft) 95,15 %
11.04.2018 16:00 12,1 C 14,5 C 13,4 C 96 % 0 lf 1005,2 hPa 0,0 l/m 0,13 h 0,00 h 185 W/m 8,3 km/h (2 Bft) 96,07 %
11.04.2018 17:00 13,2 C 14,1 C 14,5 C 91 % 0 lf 1004,9 hPa 0,0 l/m 0,20 h 0,00 h 176 W/m 16,7 km/h (3 Bft) 98,57 %
11.04.2018 18:00 14,1 C 14,1 C 13,4 C 86 % 0 lf 1004,6 hPa 0,0 l/m 0,33 h 0,00 h 135 W/m 13,9 km/h (3 Bft) 93,74 %
11.04.2018 19:00 13,8 C 13,0 C 11,8 C 85 % 0 lf 1004,4 hPa 0,0 l/m 0,00 h 0,00 h 37 W/m 10,0 km/h (2 Bft) 97,32 %
11.04.2018 20:00 12,8 C 11,0 C 8,7 C 87 % 0 lf 1004,3 hPa 0,0 l/m 0,00 h 0,00 h 8 W/m 3,2 km/h (1 Bft) 98,15 %
11.04.2018 21:00 11,3 C 9,6 C 7,3 C 89 % 2 lf 1004,5 hPa 0,0 l/m 0,00 h 0,00 h 0 W/m 6,1 km/h (2 Bft) 94,73 %
11.04.2018 22:00 10,3 C 8,4 C 6,3 C 90 % 6 lf 1004,4 hPa 0,0 l/m 0,00 h 0,00 h 0 W/m 3,7 km/h (1 Bft) 96,22 %
11.04.2018 23:00 9,2 C 7,2 C 5,4 C 91 % 14 lf 1004,1 hPa 0,0 l/m 0,00 h 0,00 h 0 W/m 2,1 km/h (1 Bft) 98,58 %
12.04.2018 00:00 8,3 C 6,6 C 4,9 C 92 % 15 lf 1003,5 hPa 0,0 l/m 0,00 h 0,00 h 0 W/m 0,2 km/h (0 Bft) 95,04 %
12.04.2018 01:00 7,6 C 5,9 C 4,4 C 93 % 15 lf 1003,2 hPa 0,0 l/m 0,00 h 0,00 h 0 W/m 0,4 km/h (0 Bft) 96,16 %
12.04.2018 02:00 7,0 C 5,6 C 4,2 C 93 % 15 lf 1002,6 hPa 0,0 l/m 0,00 h 0,00 h 0 W/m 0,2 km/h (0 Bft) 96,01 %
12.04.2018 03:00 6,6 C 5,2 C 3,9 C 94 % 15 lf 1002,2 hPa 0,0 l/m 0,00 h 0,00 h 0 W/m 0,0 km/h (0 Bft) 97,93 %
12.04.2018 04:00 6,2 C 5,0 C 3,9 C 95 % 15 lf 1001,7 hPa 0,0 l/m 0,00 h 0,00 h 0 W/m 0,3 km/h (0 Bft) 91,28 %
12.04.2018 05:00 6,2 C 5,2 C 3,9 C 96 % 15 lf 1001,0 hPa 0,0 l/m 0,00 h 0,00 h 0 W/m 1,4 km/h (1 Bft) 97,66 %
12.04.2018 06:00 6,0 C 5,2 C 3,4 C 96 % 15 lf 1000,5 hPa 0,0 l/m 0,00 h 0,00 h 6 W/m 0,5 km/h (0 Bft) 97,89 %
12.04.2018 07:00 6,2 C 6,1 C 4,3 C 97 % 15 lf 1000,3 hPa 0,0 l/m 0,00 h 0,00 h 30 W/m 0,8 km/h (0 Bft) 94,02 %
12.04.2018 08:00 7,7 C 8,4 C 7,2 C 98 % 15 lf 1000,0 hPa 0,0 l/m 0,00 h 0,00 h 50 W/m 11,6 km/h (2 Bft) 97,30 %
12.04.2018 09:00 9,7 C 10,3 C 9,4 C 98 % 15 lf 1000,0 hPa 0,0 l/m 0,00 h 0,00 h 86 W/m 19,3 km/h (3 Bft) 96,28 %
12.04.2018 10:00 10,4 C 11,8 C 10,1 C 98 % 4 lf 999,9 hPa 0,0 l/m 0,00 h 0,27 h 89 W/m 20,0 km/h (4 Bft) 97,12 %
12.04.2018 11:00 11,4 C 13,7 C 12,3 C 97 % 4 lf 999,0 hPa 0,0 l/m 0,00 h 0,40 h 159 W/m 21,3 km/h (4 Bft) 94,69 %
12.04.2018 12:00 14,2 C 19,9 C 17,8 C 90 % 0 lf 998,8 hPa 0,0 l/m 0,50 h 0,00 h 366 W/m 22,2 km/h (4 Bft) 97,37 %
12.04.2018 13:00 16,4 C 19,9 C 18,7 C 80 % 0 lf 999,0 hPa 0,0 l/m 0,40 h 0,00 h 345 W/m 20,4 km/h (4 Bft) 96,70 %
12.04.2018 14:00 17,5 C 22,1 C 18,8 C 76 % 0 lf 998,5 hPa 0,0 l/m 0,60 h 0,00 h 412 W/m 13,4 km/h (3 Bft) 95,97 %
12.04.2018 15:00 18,6 C 25,1 C 20,3 C 73 % 0 lf 998,1 hPa 0,0 l/m 0,83 h 0,00 h 424 W/m 12,1 km/h (2 Bft) 95,88 %
12.04.2018 16:00 20,2 C 23,3 C 20,4 C 69 % 0 lf 998,1 hPa 0,0 l/m 0,93 h 0,00 h 364 W/m 14,9 km/h (3 Bft) 96,58 %
12.04.2018 17:00 20,1 C 20,7 C 20,2 C 68 % 0 lf 998,0 hPa 0,0 l/m 0,33 h 0,00 h 191 W/m 14,0 km/h (3 Bft) 97,51 %
12.04.2018 18:00 20,2 C 20,3 C 19,6 C 65 % 0 lf 998,2 hPa 0,0 l/m 0,23 h 0,00 h 128 W/m 15,4 km/h (3 Bft) 94,98 %
12.04.2018 19:00 19,7 C 17,1 C 16,2 C 69 % 5 lf 998,6 hPa 3,4 l/m 0,17 h 0,43 h 38 W/m 10,9 km/h (2 Bft) 96,23 %
12.04.2018 20:00 16,9 C 13,3 C 12,1 C 82 % 15 lf 999,2 hPa 0,0 l/m 0,00 h 0,00 h 11 W/m 5,9 km/h (2 Bft) 97,65 %
12.04.2018 21:00 14,8 C 12,4 C 10,7 C 88 % 15 lf 999,9 hPa 0,0 l/m 0,00 h 0,00 h 0 W/m 2,6 km/h (1 Bft) 96,30 %
12.04.2018 22:00 13,4 C 11,2 C 9,2 C 89 % 15 lf 1000,4 hPa 0,0 l/m 0,00 h 0,00 h 0 W/m 0,8 km/h (0 Bft) 94,87 %
12.04.2018 23:00 12,2 C 10,2 C 8,6 C 92 % 15 lf 1000,6 hPa 0,0 l/m 0,00 h 0,00 h 0 W/m 4,5 km/h (1 Bft) 98,15 %
13.04.2018 00:00 11,3 C 9,7 C 7,8 C 93 % 15 lf 1001,2 hPa 0,0 l/m 0,00 h 0,00 h 0 W/m 3,9 km/h (1 Bft) 94,92 %
13.04.2018 01:00 10,4 C 8,4 C 6,4 C 93 % 15 lf 1001,7 hPa 0,0 l/m 0,00 h 0,00 h 0 W/m 0,8 km/h (0 Bft) 96,08 %
13.04.2018 02:00 9,3 C 7,5 C 5,6 C 93 % 15 lf 1002,0 hPa 0,0 l/m 0,00 h 0,00 h 0 W/m 0,0 km/h (0 Bft) 97,51 %
13.04.2018 03:00 8,5 C 6,9 C 5,3 C 94 % 15 lf 1002,3 hPa 0,0 l/m 0,00 h 0,00 h 0 W/m 0,0 km/h (0 Bft) 95,02 %
13.04.2018 04:00 7,4 C 5,9 C 4,9 C 94 % 15 lf 1002,2 hPa 0,0 l/m 0,00 h 0,00 h 0 W/m 0,0 km/h (0 Bft) 97,38 %
13.04.2018 05:00 6,7 C 5,4 C 4,6 C 95 % 15 lf 1002,4 hPa 0,0 l/m 0,00 h 0,00 h 0 W/m 0,0 km/h (0 Bft) 96,73 %
13.04.2018 06:00 6,3 C 5,2 C 4,6 C 95 % 15 lf 1002,9 hPa 0,0 l/m 0,00 h 0,00 h 7 W/m 0,0 km/h (0 Bft) 95,20 %
13.04.2018 07:00 6,1 C 5,7 C 5,0 C 96 % 15 lf 1003,7 hPa 0,0 l/m 0,00 h 0,00 h 37 W/m 1,2 km/h (1 Bft) 97,60 %
13.04.2018 08:00 7,0 C 7,5 C 7,0 C 97 % 15 lf 1004,4 hPa 0,0 l/m 0,00 h 0,00 h 110 W/m 4,1 km/h (1 Bft) 95,16 %
13.04.2018 09:00 8,9 C 10,9 C 9,6 C 98 % 15 lf 1005,0 hPa 0,0 l/m 0,33 h 0,00 h 200 W/m 0,7 km/h (0 Bft) 97,77 %
13.04.2018 10:00 10,6 C 13,2 C 11,9 C 98 % 6 lf 1005,3 hPa 0,0 l/m 0,03 h 0,00 h 249 W/m 3,8 km/h (1 Bft) 94,80 %
13.04.2018 11:00 11,9 C 15,0 C 12,8 C 97 % 0 lf 1005,7 hPa 0,0 l/m 0,17 h 0,00 h 272 W/m 8,6 km/h (2 Bft) 96,77 %
13.04.2018 12:00 14,0 C 16,7 C 14,6 C 84 % 0 lf 1006,0 hPa 0,0 l/m 0,00 h 0,00 h 240 W/m 11,2 km/h (2 Bft) 97,55 %
13.04.2018 13:00 14,8 C 16,7 C 15,8 C 80 % 0 lf 1006,7 hPa 0,0 l/m 0,00 h 0,00 h 236 W/m 10,7 km/h (2 Bft) 94,97 %
13.04.2018 14:00 15,4 C 18,0 C 16,7 C 77 % 0 lf 1007,0 hPa 0,0 l/m 0,63 h 0,00 h 372 W/m 17,2 km/h (3 Bft) 96,84 %
13.04.2018 15:00 15,8 C 17,8 C 17,1 C 75 % 0 lf 1007,5 hPa 0,0 l/m 0,40 h 0,00 h 298 W/m 17,1 km/h (3 Bft) 97,36 %
13.04.2018 16:00 15,7 C 16,6 C 15,9 C 76 % 0 lf 1008,0 hPa 0,0 l/m 0,10 h 0,00 h 204 W/m 17,6 km/h (3 Bft) 96,04 %
13.04.2018 17:00 15,4 C 15,5 C 14,6 C 76 % 0 lf 1008,9 hPa 0,0 l/m 0,00 h 0,00 h 112 W/m 14,8 km/h (3 Bft) 96,83 %
13.04.2018 18:00 14,9 C 14,8 C 13,5 C 79 % 0 lf 1009,5 hPa 0,0 l/m 0,00 h 0,00 h 56 W/m 7,1 km/h (2 Bft) 97,04 %
13.04.2018 19:00 14,6 C 14,2 C 12,8 C 81 % 0 lf 1009,9 hPa 0,0 l/m 0,00 h 0,00 h 40 W/m 6,3 km/h (2 Bft) 95,94 %
13.04.2018 20:00 14,1 C 12,9 C 11,1 C 82 % 0 lf 1010,5 hPa 0,0 l/m 0,00 h 0,00 h 7 W/m 4,5 km/h (1 Bft) 96,30 %
13.04.2018 21:00 13,2 C 12,0 C 10,2 C 84 % 0 lf 1011,2 hPa 0,0 l/m 0,00 h 0,00 h 0 W/m 4,5 km/h (1 Bft) 97,09 %
13.04.2018 22:00 12,5 C 11,5 C 9,6 C 87 % 0 lf 1011,8 hPa 0,0 l/m 0,00 h 0,00 h 0 W/m 4,5 km/h (1 Bft) 93,88 %
13.04.2018 23:00 11,8 C 10,4 C 8,5 C 88 % 0 lf 1012,2 hPa 0,0 l/m 0,00 h 0,00 h 0 W/m 2,7 km/h (1 Bft) 93,53 %
14.04.2018 00:00 10,9 C 10,0 C 8,1 C 90 % 0 lf 1012,7 hPa 0,0 l/m 0,00 h 0,00 h 0 W/m 0,9 km/h (0 Bft) 99,01 %
14.04.2018 01:00 10,4 C 9,4 C 8,0 C 91 % 1 lf 1013,0 hPa 0,0 l/m 0,00 h 0,00 h 0 W/m 2,0 km/h (1 Bft) 95,80 %
14.04.2018 02:00 10,0 C 9,1 C 7,4 C 93 % 1 lf 1013,2 hPa 0,0 l/m 0,00 h 0,00 h 0 W/m 0,3 km/h (0 Bft) 95,18 %
14.04.2018 03:00 9,7 C 9,0 C 7,5 C 93 % 2 lf 1013,5 hPa 0,0 l/m 0,00 h 0,00 h 0 W/m 1,9 km/h (1 Bft) 97,72 %
14.04.2018 04:00 9,6 C 8,9 C 7,7 C 95 % 1 lf 1013,7 hPa 0,0 l/m 0,00 h 0,00 h 0 W/m 0,3 km/h (0 Bft) 96,89 %
14.04.2018 05:00 9,2 C 8,1 C 6,7 C 95 % 3 lf 1014,2 hPa 0,0 l/m 0,00 h 0,00 h 0 W/m 1,1 km/h (0 Bft) 91,45 %
14.04.2018 06:00 9,0 C 8,4 C 7,8 C 95 % 2 lf 1014,8 hPa 0,0 l/m 0,00 h 0,00 h 6 W/m 1,5 km/h (1 Bft) 97,18 %
14.04.2018 07:00 9,0 C 8,6 C 6,9 C 96 % 2 lf 1015,4 hPa 0,0 l/m 0,00 h 0,00 h 43 W/m 1,2 km/h (1 Bft) 97,31 %
14.04.2018 08:00 9,3 C 11,8 C 9,5 C 96 % 0 lf 1016,0 hPa 0,0 l/m 0,47 h 0,00 h 135 W/m 0,0 km/h (0 Bft) 96,23 %
14.04.2018 09:00 10,3 C 15,2 C 12,4 C 96 % 0 lf 1016,6 hPa 0,0 l/m 0,63 h 0,00 h 215 W/m 0,6 km/h (0 Bft) 95,51 %
14.04.2018 10:00 12,0 C 16,1 C 14,4 C 88 % 0 lf 1017,2 hPa 0,0 l/m 0,53 h 0,00 h 273 W/m 7,2 km/h (2 Bft) 98,60 %
14.04.2018 11:00 13,5 C 18,6 C 16,1 C 81 % 0 lf 1017,4 hPa 0,0 l/m 0,40 h 0,00 h 351 W/m 7,7 km/h (2 Bft) 95,69 %
14.04.2018 12:00 15,5 C 22,8 C 19,2 C 77 % 0 lf 1017,4 hPa 0,0 l/m 0,77 h 0,00 h 595 W/m 10,6 km/h (2 Bft) 95,14 %
14.04.2018 13:00 16,7 C 25,5 C 18,7 C 74 % 0 lf 1017,2 hPa 0,0 l/m 1,00 h 0,00 h 742 W/m 12,9 km/h (3 Bft) 97,37 %
14.04.2018 14:00 18,0 C 24,7 C 18,5 C 70 % 0 lf 1017,2 hPa 0,0 l/m 0,93 h 0,00 h 596 W/m 12,7 km/h (3 Bft) 96,51 %
14.04.2018 15:00 18,3 C 25,1 C 19,9 C 69 % 0 lf 1017,0 hPa 0,0 l/m 1,00 h 0,00 h 655 W/m 14,4 km/h (3 Bft) 96,80 %
14.04.2018 16:00 18,7 C 22,3 C 18,4 C 66 % 0 lf 1016,4 hPa 0,0 l/m 0,87 h 0,00 h 383 W/m 11,5 km/h (2 Bft) 94,51 %
14.04.2018 17:00 18,6 C 20,3 C 18,6 C 65 % 0 lf 1015,8 hPa 0,0 l/m 0,90 h 0,00 h 301 W/m 11,0 km/h (2 Bft) 97,08 %
14.04.2018 18:00 18,2 C 18,4 C 17,1 C 66 % 0 lf 1016,0 hPa 0,0 l/m 0,53 h 0,00 h 147 W/m 10,2 km/h (2 Bft) 97,50 %
14.04.2018 19:00 17,2 C 16,6 C 15,3 C 69 % 0 lf 1015,9 hPa 0,0 l/m 0,00 h 0,00 h 37 W/m 8,6 km/h (2 Bft) 94,03 %
14.04.2018 20:00 16,4 C 15,5 C 13,9 C 74 % 0 lf 1015,8 hPa 0,0 l/m 0,00 h 0,00 h 8 W/m 6,5 km/h (2 Bft) 97,72 %
14.04.2018 21:00 15,7 C 14,6 C 13,0 C 76 % 0 lf 1015,9 hPa 0,0 l/m 0,00 h 0,00 h 0 W/m 6,5 km/h (2 Bft) 95,52 %
14.04.2018 22:00 14,9 C 13,6 C 11,8 C 78 % 0 lf 1015,8 hPa 0,0 l/m 0,00 h 0,00 h 0 W/m 3,3 km/h (1 Bft) 97,09 %
14.04.2018 23:00 14,1 C 13,3 C 11,3 C 80 % 0 lf 1015,3 hPa 0,0 l/m 0,00 h 0,00 h 0 W/m 7,8 km/h (2 Bft) 95,37 %
15.04.2018 00:00 13,9 C 13,2 C 11,7 C 82 % 3 lf 1015,3 hPa 0,2 l/m 0,00 h 0,30 h 0 W/m 11,0 km/h (2 Bft) 96,67 %
15.04.2018 01:00 13,5 C 11,7 C 10,8 C 89 % 15 lf 1015,6 hPa 0,4 l/m 0,00 h 0,87 h 0 W/m 11,0 km/h (2 Bft) 96,94 %
15.04.2018 02:00 12,8 C 11,7 C 10,6 C 93 % 15 lf 1015,0 hPa 0,2 l/m 0,00 h 0,97 h 0 W/m 3,1 km/h (1 Bft) 96,36 %
15.04.2018 03:00 12,6 C 11,7 C 10,6 C 95 % 15 lf 1014,5 hPa 0,0 l/m 0,00 h 0,87 h 0 W/m 3,5 km/h (1 Bft) 95,67 %
15.04.2018 04:00 12,4 C 11,7 C 10,6 C 96 % 15 lf 1014,1 hPa 0,8 l/m 0,00 h 1,00 h 0 W/m 7,2 km/h (2 Bft) 97,79 %
15.04.2018 05:00 12,0 C 11,1 C 10,4 C 96 % 15 lf 1014,0 hPa 0,8 l/m 0,00 h 0,95 h 0 W/m 9,8 km/h (2 Bft) 95,49 %
15.04.2018 06:00 11,7 C 10,8 C 10,0 C 97 % 15 lf 1013,7 hPa 0,6 l/m 0,00 h 1,00 h 5 W/m 8,4 km/h (2 Bft) 96,78 %
15.04.2018 07:00 11,5 C 10,9 C 10,0 C 97 % 15 lf 1013,5 hPa 0,0 l/m 0,00 h 0,47 h 22 W/m 9,2 km/h (2 Bft) 96,37 %
15.04.2018 08:00 11,7 C 11,9 C 10,7 C 98 % 15 lf 1013,0 hPa 0,0 l/m 0,30 h 0,00 h 120 W/m 10,1 km/h (2 Bft) 96,80 %
15.04.2018 09:00 13,0 C 18,0 C 12,4 C 98 % 10 lf 1012,6 hPa 0,0 l/m 0,93 h 0,00 h 387 W/m 14,8 km/h (3 Bft) 95,24 %
15.04.2018 10:00 15,0 C 21,2 C 16,6 C 89 % 0 lf 1012,1 hPa 0,0 l/m 0,93 h 0,00 h 538 W/m 17,5 km/h (3 Bft) 95,94 %
15.04.2018 11:00 17,3 C 22,7 C 21,2 C 77 % 0 lf 1011,8 hPa 0,0 l/m 0,87 h 0,00 h 627 W/m 18,1 km/h (3 Bft) 97,86 %
15.04.2018 12:00 18,1 C 23,5 C 22,6 C 72 % 0 lf 1011,3 hPa 0,0 l/m 0,83 h 0,00 h 695 W/m 15,5 km/h (3 Bft) 96,63 %
15.04.2018 13:00 18,1 C 18,7 C 18,5 C 71 % 0 lf 1010,9 hPa 0,0 l/m 0,07 h 0,03 h 192 W/m 14,3 km/h (3 Bft) 95,01 %
15.04.2018 14:00 17,4 C 18,4 C 17,0 C 74 % 0 lf 1010,4 hPa 0,0 l/m 0,00 h 0,00 h 135 W/m 7,1 km/h (2 Bft) 97,72 %
15.04.2018 15:00 18,4 C 21,5 C 20,4 C 68 % 0 lf 1009,9 hPa 0,0 l/m 0,20 h 0,00 h 319 W/m 10,1 km/h (2 Bft) 96,44 %
15.04.2018 16:00 19,1 C 20,3 C 20,0 C 63 % 0 lf 1009,4 hPa 0,0 l/m 0,27 h 0,00 h 245 W/m 14,1 km/h (3 Bft) 95,58 %
15.04.2018 17:00 18,9 C 19,6 C 18,7 C 64 % 0 lf 1009,0 hPa 0,0 l/m 0,03 h 0,00 h 189 W/m 13,8 km/h (3 Bft) 98,23 %
15.04.2018 18:00 18,0 C 17,6 C 16,4 C 66 % 0 lf 1009,2 hPa 0,0 l/m 0,00 h 0,00 h 70 W/m 16,6 km/h (3 Bft) 94,81 %
15.04.2018 19:00 16,7 C 16,2 C 14,8 C 70 % 0 lf 1009,4 hPa 0,0 l/m 0,00 h 0,00 h 39 W/m 5,2 km/h (1 Bft) 97,58 %
15.04.2018 20:00 16,2 C 15,1 C 13,0 C 73 % 0 lf 1009,6 hPa 0,0 l/m 0,00 h 0,00 h 10 W/m 6,0 km/h (2 Bft) 95,87 %
15.04.2018 21:00 15,3 C 13,6 C 11,5 C 77 % 0 lf 1009,8 hPa 0,0 l/m 0,00 h 0,00 h 0 W/m 4,4 km/h (1 Bft) 97,29 %
15.04.2018 22:00 14,1 C 12,6 C 10,6 C 81 % 0 lf 1009,8 hPa 0,0 l/m 0,00 h 0,00 h 0 W/m 1,7 km/h (1 Bft) 96,15 %
15.04.2018 23:00 13,3 C 12,0 C 9,9 C 85 % 0 lf 1009,9 hPa 0,0 l/m 0,00 h 0,00 h 0 W/m 2,5 km/h (1 Bft) 95,80 %
Min-Datum _ 12.04.18 12.04.18 12.04.18 10.04.18 09.04.18 12.04.18 - - - - 09.04.18 13.04.18
_ Min-Zeit 06:28 04:52 04:22 16:28 00:00 16:50 - - - - 00:00 22:52
Minimum _ 5,9 C 4,4 C 3,3 C 57 % 0 lf 997,8 hPa - - - - 0,0 km/h (0 Bft) 4,76 %
Max-Datum _ 10.04.18 12.04.18 15.04.18 12.04.18 10.04.18 14.04.18 10.04.18 09.04.18 15.04.18 15.04.18 10.04.18 09.04.18
_ Max-Zeit 17:32 14:56 11:48 09:22 19:58 12:08 21:40 08:08 05:43 12:56 22:56 00:42
Maximum _ 20,5 C 27,8 C 25,0 C 99 % 15 lf 1017,6 hPa 8,8 l/m 0,07 h 0,08 h 979 W/m 40,6 km/h
S-SW (6 Bft)
100,00 %
Durchschnitt _ 13,3 C 13,7 C 12,1 C 84 % 4 lf 1006,2 hPa #28,0 l/m #21:20 h #14:09 h 169 W/m 8,3 km/h (2 Bft) 96,27 %
© 2018 W. Hausmann